createdAt,value
2023-08-12T00:00:23.922Z,40.98
2023-08-12T00:02:53.445Z,41.08
2023-08-12T00:05:21.546Z,41.08
2023-08-12T00:07:50.508Z,41.11
2023-08-12T00:10:18.654Z,41.03
2023-08-12T00:12:46.749Z,41.07
2023-08-12T00:15:14.694Z,41.06
2023-08-12T00:17:43.234Z,41.19
2023-08-12T00:20:13.984Z,41.16
2023-08-12T00:22:42.795Z,41.27
2023-08-12T00:25:11.036Z,41.32
2023-08-12T00:27:39.859Z,41.42
2023-08-12T00:30:09.101Z,41.36
2023-08-12T00:32:37.182Z,41.49
2023-08-12T00:35:06.510Z,41.46
2023-08-12T00:37:35.971Z,41.52
2023-08-12T00:40:04.704Z,41.56
2023-08-12T00:42:33.897Z,41.63
2023-08-12T00:45:01.973Z,41.63
2023-08-12T00:47:31.598Z,41.73
2023-08-12T00:50:00.835Z,41.64
2023-08-12T00:52:28.979Z,41.71
2023-08-12T00:55:00.549Z,41.70
2023-08-12T00:57:28.671Z,41.67
2023-08-12T00:59:58.181Z,41.56
2023-08-12T01:02:26.507Z,41.70
2023-08-12T01:04:54.895Z,41.64
2023-08-12T01:07:22.907Z,41.73
2023-08-12T01:09:51.047Z,41.68
2023-08-12T01:12:29.325Z,41.52
2023-08-12T01:15:03.805Z,41.77
2023-08-12T01:17:33.837Z,41.65
2023-08-12T01:20:04.079Z,41.59
2023-08-12T01:22:34.521Z,41.81
2023-08-12T01:25:03.912Z,41.68
2023-08-12T01:27:31.880Z,41.67
2023-08-12T01:30:00.239Z,41.73
2023-08-12T01:32:32.939Z,41.66
2023-08-12T01:35:09.266Z,41.55
2023-08-12T01:37:39.836Z,41.63
2023-08-12T01:40:11.611Z,41.72
2023-08-12T01:42:41.923Z,41.67
2023-08-12T01:45:10.289Z,41.84
2023-08-12T01:47:38.371Z,41.95
2023-08-12T01:50:07.590Z,41.90
2023-08-12T01:52:35.881Z,42.00
2023-08-12T01:55:04.173Z,41.91
2023-08-12T01:57:33.480Z,42.11
2023-08-12T02:00:05.088Z,42.04
2023-08-12T02:02:47.263Z,42.00
2023-08-12T02:05:15.915Z,42.10
2023-08-12T02:07:43.935Z,42.22
2023-08-12T02:10:12.160Z,42.27
2023-08-12T02:12:41.588Z,42.11
2023-08-12T02:15:10.013Z,42.36
2023-08-12T02:17:38.090Z,42.27
2023-08-12T02:20:07.469Z,42.26
2023-08-12T02:22:35.460Z,42.25
2023-08-12T02:25:03.432Z,42.12
2023-08-12T02:27:31.385Z,42.18
2023-08-12T02:30:00.943Z,42.11
2023-08-12T02:32:29.210Z,42.27
2023-08-12T02:34:57.319Z,42.18
2023-08-12T02:37:25.306Z,42.20
2023-08-12T02:39:53.303Z,42.18
2023-08-12T02:42:23.009Z,42.24
2023-08-12T02:44:51.085Z,42.13
2023-08-12T02:47:20.519Z,42.19
2023-08-12T02:49:48.813Z,42.20
2023-08-12T02:52:15.816Z,42.14
2023-08-12T02:54:43.821Z,42.37
2023-08-12T02:57:12.018Z,42.45
2023-08-12T02:59:40.216Z,42.36
2023-08-12T03:02:08.247Z,42.27
2023-08-12T03:04:37.609Z,42.10
2023-08-12T03:07:05.624Z,42.38
2023-08-12T03:09:33.770Z,42.47
2023-08-12T03:12:03.937Z,42.43
2023-08-12T03:14:32.276Z,42.42
2023-08-12T03:17:01.908Z,42.46
2023-08-12T03:19:30.764Z,42.60
2023-08-12T03:22:01.008Z,42.56
2023-08-12T03:24:29.033Z,42.60
2023-08-12T03:26:56.958Z,42.75
2023-08-12T03:29:25.097Z,42.68
2023-08-12T03:31:54.189Z,42.72
2023-08-12T03:34:23.581Z,42.62
2023-08-12T03:36:51.891Z,42.67
2023-08-12T03:39:22.906Z,42.76
2023-08-12T03:41:52.106Z,42.79
2023-08-12T03:44:20.672Z,42.75
2023-08-12T03:46:49.566Z,42.86
2023-08-12T03:49:19.031Z,42.85
2023-08-12T03:51:49.204Z,42.84
2023-08-12T03:54:17.258Z,42.78
2023-08-12T03:56:46.736Z,42.73
2023-08-12T03:59:14.961Z,43.05
2023-08-12T04:01:43.544Z,42.92
2023-08-12T04:04:14.232Z,42.96
2023-08-12T04:06:42.746Z,43.06
2023-08-12T04:09:10.795Z,42.98
2023-08-12T04:11:38.861Z,42.90
2023-08-12T04:14:08.222Z,43.03
2023-08-12T04:16:36.239Z,43.11
2023-08-12T04:19:04.262Z,43.06
2023-08-12T04:21:32.367Z,42.96
2023-08-12T04:24:00.528Z,43.28
2023-08-12T04:26:28.577Z,42.91
2023-08-12T04:28:56.798Z,42.91
2023-08-12T04:31:26.864Z,43.01
2023-08-12T04:33:54.979Z,42.84
2023-08-12T04:36:25.552Z,42.91
2023-08-12T04:38:54.256Z,42.90
2023-08-12T04:41:25.052Z,42.87
2023-08-12T04:43:54.558Z,42.95
2023-08-12T04:46:26.601Z,42.87
2023-08-12T04:48:54.926Z,42.88
2023-08-12T04:51:22.936Z,42.94
2023-08-12T04:53:50.997Z,42.99
2023-08-12T04:56:19.345Z,42.98
2023-08-12T04:58:47.646Z,43.11
2023-08-12T05:01:15.636Z,43.24
2023-08-12T05:03:45.290Z,43.27
2023-08-12T05:06:13.276Z,43.43
2023-08-12T05:08:41.400Z,43.32
2023-08-12T05:11:09.606Z,43.45
2023-08-12T05:13:37.601Z,43.54
2023-08-12T05:16:06.327Z,43.64
2023-08-12T05:18:34.345Z,43.63
2023-08-12T05:21:04.093Z,43.59
2023-08-12T05:23:32.179Z,43.63
2023-08-12T05:26:00.339Z,43.93
2023-08-12T05:28:28.323Z,43.77
2023-08-12T05:30:56.685Z,43.69
2023-08-12T05:33:25.109Z,43.97
2023-08-12T05:35:53.263Z,44.05
2023-08-12T05:38:22.562Z,44.11
2023-08-12T05:40:50.648Z,44.13
2023-08-12T05:43:18.796Z,44.10
2023-08-12T05:45:46.904Z,43.97
2023-08-12T05:48:15.044Z,44.32
2023-08-12T05:50:43.033Z,44.26
2023-08-12T05:53:11.022Z,44.26
2023-08-12T05:55:40.533Z,44.35
2023-08-12T05:58:09.523Z,44.28
2023-08-12T06:00:37.515Z,44.39
2023-08-12T06:03:06.107Z,44.40
2023-08-12T06:05:34.108Z,44.28
2023-08-12T06:08:02.080Z,44.27
2023-08-12T06:10:30.032Z,44.29
2023-08-12T06:12:59.301Z,44.37
2023-08-12T06:15:27.258Z,44.23
2023-08-12T06:17:55.327Z,44.29
2023-08-12T06:20:23.298Z,44.28
2023-08-12T06:22:51.579Z,44.47
2023-08-12T06:25:19.865Z,44.27
2023-08-12T06:27:48.144Z,44.21
2023-08-12T06:30:17.633Z,44.22
2023-08-12T06:32:45.580Z,44.17
2023-08-12T06:35:13.644Z,44.11
2023-08-12T06:37:42.753Z,44.12
2023-08-12T06:40:11.089Z,44.15
2023-08-12T06:42:39.260Z,44.26
2023-08-12T06:45:08.636Z,44.23
2023-08-12T06:47:38.186Z,44.17
2023-08-12T06:50:06.762Z,44.27
2023-08-12T06:52:34.813Z,44.20
2023-08-12T06:55:02.799Z,44.26
2023-08-12T06:57:30.805Z,44.30
2023-08-12T06:59:58.751Z,44.36
2023-08-12T07:02:26.807Z,44.27
2023-08-12T07:04:56.176Z,44.31
2023-08-12T07:07:24.215Z,44.33
2023-08-12T07:09:52.312Z,44.25
2023-08-12T07:12:20.412Z,44.22
2023-08-12T07:14:48.397Z,44.22
2023-08-12T07:17:16.373Z,44.35
2023-08-12T07:19:44.471Z,44.32
2023-08-12T07:22:14.284Z,44.31
2023-08-12T07:24:42.562Z,44.28
2023-08-12T07:27:10.548Z,44.34
2023-08-12T07:29:38.509Z,44.30
2023-08-12T07:32:07.193Z,44.32
2023-08-12T07:34:35.200Z,44.22
2023-08-12T07:37:03.186Z,44.07
2023-08-12T07:39:32.639Z,44.27
2023-08-12T07:42:00.627Z,44.22
2023-08-12T07:44:29.011Z,44.24
2023-08-12T07:46:57.182Z,44.32
2023-08-12T07:49:25.417Z,44.31
2023-08-12T07:51:53.607Z,44.20
2023-08-12T07:54:21.656Z,44.15
2023-08-12T07:56:51.082Z,44.26
2023-08-12T07:59:18.987Z,44.30
2023-08-12T08:01:47.014Z,44.13
2023-08-12T08:04:15.143Z,44.17
2023-08-12T08:06:43.104Z,44.10
2023-08-12T08:09:11.586Z,43.98
2023-08-12T08:11:39.655Z,43.89
2023-08-12T08:14:08.992Z,43.81
2023-08-12T08:16:37.798Z,43.89
2023-08-12T08:19:06.202Z,43.92
2023-08-12T08:21:34.217Z,43.66
2023-08-12T08:24:02.227Z,43.67
2023-08-12T08:26:30.324Z,43.75
2023-08-12T08:28:58.314Z,43.72
2023-08-12T08:31:27.742Z,43.60
2023-08-12T08:33:55.762Z,43.77
2023-08-12T08:36:24.152Z,44.80
2023-08-12T08:38:52.204Z,45.17
2023-08-12T08:41:21.238Z,45.35
2023-08-12T08:43:50.624Z,45.67
2023-08-12T08:46:18.726Z,45.44
2023-08-12T08:48:51.046Z,44.95
2023-08-12T08:51:22.013Z,45.19
2023-08-12T08:53:52.371Z,45.30
2023-08-12T08:56:22.433Z,45.45
2023-08-12T08:58:50.473Z,45.32
2023-08-12T09:01:23.369Z,45.42
2023-08-12T09:03:54.535Z,45.44
2023-08-12T09:06:24.013Z,45.83
2023-08-12T09:08:53.935Z,45.91
2023-08-12T09:11:22.084Z,45.83
2023-08-12T09:13:50.445Z,46.04
2023-08-12T09:16:18.532Z,46.00
2023-08-12T09:18:47.157Z,46.08
2023-08-12T09:21:17.633Z,45.96
2023-08-12T09:23:46.206Z,45.73
2023-08-12T09:26:19.138Z,46.29
2023-08-12T09:28:47.956Z,46.84
2023-08-12T09:31:25.830Z,47.39
2023-08-12T09:33:54.449Z,47.96
2023-08-12T09:36:24.659Z,49.22
2023-08-12T09:38:53.748Z,49.87
2023-08-12T09:41:21.861Z,50.22
2023-08-12T09:43:49.970Z,50.03
2023-08-12T09:46:18.160Z,49.56
2023-08-12T09:48:46.252Z,49.57
2023-08-12T09:51:14.442Z,49.61
2023-08-12T09:53:44.398Z,48.99
2023-08-12T09:56:15.448Z,49.11
2023-08-12T09:58:45.307Z,48.88
2023-08-12T10:01:14.614Z,48.72
2023-08-12T10:03:46.946Z,48.46
2023-08-12T10:06:16.726Z,48.29
2023-08-12T10:08:48.425Z,48.18
2023-08-12T10:11:16.930Z,47.94
2023-08-12T10:13:45.208Z,47.97
2023-08-12T10:16:13.885Z,47.96
2023-08-12T10:18:42.262Z,47.91
2023-08-12T10:21:12.731Z,48.02
2023-08-12T10:23:45.881Z,47.89
2023-08-12T10:26:19.196Z,47.79
2023-08-12T10:28:47.551Z,47.35
2023-08-12T10:31:15.786Z,47.53
2023-08-12T10:33:44.668Z,47.29
2023-08-12T10:36:13.002Z,47.05
2023-08-12T10:38:41.218Z,46.92
2023-08-12T10:41:21.845Z,46.53
2023-08-12T10:43:57.782Z,46.74
2023-08-12T10:46:30.967Z,46.50
2023-08-12T10:49:02.877Z,46.72
2023-08-12T10:51:47.103Z,46.70
2023-08-12T10:54:33.086Z,46.65
2023-08-12T10:57:12.222Z,46.64
2023-08-12T10:59:56.953Z,46.47
2023-08-12T11:02:30.066Z,46.80
2023-08-12T11:04:59.834Z,46.72
2023-08-12T11:07:36.191Z,46.92
2023-08-12T11:10:12.716Z,46.99
2023-08-12T11:12:43.388Z,46.71
2023-08-12T11:15:12.304Z,46.70
2023-08-12T11:17:42.106Z,46.84
2023-08-12T11:20:12.187Z,46.72
2023-08-12T11:22:41.297Z,46.75
2023-08-12T11:25:11.215Z,46.93
2023-08-12T11:27:44.869Z,47.14
2023-08-12T11:30:16.411Z,47.03
2023-08-12T11:32:44.936Z,46.85
2023-08-12T11:35:14.243Z,47.13
2023-08-12T11:37:44.454Z,46.94
2023-08-12T11:40:15.478Z,47.12
2023-08-12T11:42:46.632Z,46.95
2023-08-12T11:45:15.618Z,47.13
2023-08-12T11:47:44.447Z,46.79
2023-08-12T11:50:14.380Z,46.68
2023-08-12T11:52:42.909Z,46.97
2023-08-12T11:55:11.392Z,47.11
2023-08-12T11:57:41.480Z,46.78
2023-08-12T12:00:16.620Z,46.78
2023-08-12T12:02:49.994Z,46.66
2023-08-12T12:05:20.959Z,46.89
2023-08-12T12:07:51.462Z,46.76
2023-08-12T12:10:21.425Z,46.78
2023-08-12T12:12:50.197Z,47.04
2023-08-12T12:15:19.886Z,46.88
2023-08-12T12:17:48.383Z,47.01
2023-08-12T12:20:16.469Z,46.88
2023-08-12T12:22:46.257Z,47.27
2023-08-12T12:25:15.797Z,46.91
2023-08-12T12:27:46.348Z,47.22
2023-08-12T12:30:16.431Z,47.22
2023-08-12T12:32:46.160Z,47.21
2023-08-12T12:35:14.490Z,47.21
2023-08-12T12:37:43.668Z,47.18
2023-08-12T12:40:13.144Z,47.20
2023-08-12T12:42:41.138Z,47.22
2023-08-12T12:45:10.808Z,47.25
2023-08-12T12:47:39.762Z,47.28
2023-08-12T12:50:09.681Z,47.35
2023-08-12T12:52:37.697Z,47.38
2023-08-12T12:55:06.454Z,47.40
2023-08-12T12:57:34.473Z,47.35
2023-08-12T13:00:02.582Z,47.25
2023-08-12T13:02:30.728Z,47.14
2023-08-12T13:04:58.687Z,47.60
2023-08-12T13:07:28.032Z,47.39
2023-08-12T13:09:55.993Z,47.51
2023-08-12T13:12:23.991Z,47.68
2023-08-12T13:14:51.940Z,47.40
2023-08-12T13:17:20.152Z,47.55
2023-08-12T13:19:48.115Z,47.54
2023-08-12T13:22:16.197Z,47.57
2023-08-12T13:24:45.514Z,47.83
2023-08-12T13:27:14.468Z,47.73
2023-08-12T13:29:42.628Z,47.94
2023-08-12T13:32:11.021Z,47.57
2023-08-12T13:34:39.094Z,47.58
2023-08-12T13:37:07.072Z,47.57
2023-08-12T13:39:35.087Z,47.26
2023-08-12T13:42:04.681Z,47.15
2023-08-12T13:44:32.735Z,47.14
2023-08-12T13:47:00.706Z,47.09
2023-08-12T13:49:28.670Z,46.97
2023-08-12T13:51:57.033Z,46.99
2023-08-12T13:54:25.007Z,46.85
2023-08-12T13:56:52.941Z,47.05
2023-08-12T13:59:22.561Z,47.05
2023-08-12T14:01:50.648Z,47.18
2023-08-12T14:04:18.625Z,46.91
2023-08-12T14:06:47.580Z,47.19
2023-08-12T14:09:16.300Z,46.89
2023-08-12T14:11:44.253Z,47.04
2023-08-12T14:14:12.241Z,47.17
2023-08-12T14:16:41.802Z,46.97
2023-08-12T14:19:09.870Z,47.04
2023-08-12T14:21:37.963Z,47.00
2023-08-12T14:24:06.460Z,47.08
2023-08-12T14:26:35.370Z,47.22
2023-08-12T14:31:31.125Z,47.24
2023-08-12T14:38:56.089Z,47.28
2023-08-12T14:41:24.091Z,47.42
2023-08-12T14:43:52.173Z,47.14
2023-08-12T14:46:20.285Z,47.34
2023-08-12T14:48:48.249Z,47.48
2023-08-12T14:51:17.652Z,47.43
2023-08-12T14:53:45.615Z,47.55
2023-08-12T14:56:13.621Z,47.57
2023-08-12T14:58:41.631Z,47.61
2023-08-12T15:01:09.633Z,47.52
2023-08-12T15:03:37.865Z,47.50
2023-08-12T15:06:07.031Z,47.59
2023-08-12T15:08:36.470Z,47.45
2023-08-12T15:11:05.089Z,47.56
2023-08-12T15:13:33.133Z,47.63
2023-08-12T15:16:01.258Z,47.64
2023-08-12T15:18:29.249Z,47.62
2023-08-12T15:20:57.264Z,47.55
2023-08-12T15:23:25.547Z,47.54
2023-08-12T15:25:55.025Z,47.50
2023-08-12T15:28:22.978Z,47.55
2023-08-12T15:30:51.289Z,47.50
2023-08-12T15:33:19.486Z,47.61
2023-08-12T15:35:47.497Z,47.73
2023-08-12T15:38:15.578Z,47.70
2023-08-12T15:40:43.521Z,47.57
2023-08-12T15:43:13.045Z,47.72
2023-08-12T15:45:42.985Z,47.59
2023-08-12T15:48:11.122Z,47.49
2023-08-12T15:50:41.196Z,47.40
2023-08-12T15:53:10.833Z,47.27
2023-08-12T15:55:38.903Z,47.13
2023-08-12T15:58:07.023Z,47.06
2023-08-12T16:00:36.489Z,47.15
2023-08-12T16:03:04.866Z,47.26
2023-08-12T16:05:35.705Z,46.85
2023-08-12T16:08:04.708Z,46.86
2023-08-12T16:10:32.670Z,46.98
2023-08-12T16:13:00.714Z,46.77
2023-08-12T16:15:28.851Z,46.76
2023-08-12T16:17:58.292Z,46.62
2023-08-12T16:20:26.333Z,46.66
2023-08-12T16:22:54.348Z,46.57
2023-08-12T16:25:22.364Z,46.63
2023-08-12T16:27:50.324Z,46.56
2023-08-12T16:30:18.500Z,46.42
2023-08-12T16:32:46.489Z,46.41
2023-08-12T16:35:16.179Z,46.41
2023-08-12T16:37:44.186Z,46.50
2023-08-12T16:40:13.262Z,46.54
2023-08-12T16:42:41.286Z,46.30
2023-08-12T16:45:10.559Z,46.34
2023-08-12T16:47:38.621Z,46.34
2023-08-12T16:50:07.708Z,46.34
2023-08-12T16:52:37.167Z,46.30
2023-08-12T16:55:06.053Z,46.31
2023-08-12T16:57:34.021Z,46.28
2023-08-12T17:00:04.537Z,46.09
2023-08-12T17:02:32.705Z,46.07
2023-08-12T17:05:00.751Z,46.39
2023-08-12T17:07:28.799Z,46.20
2023-08-12T17:09:58.936Z,46.19
2023-08-12T17:12:27.064Z,46.28
2023-08-12T17:14:55.166Z,46.18
2023-08-12T17:17:23.716Z,46.19
2023-08-12T17:19:51.981Z,46.25
2023-08-12T17:22:21.182Z,46.08
2023-08-12T17:24:50.311Z,46.10
2023-08-12T17:27:20.046Z,46.08
2023-08-12T17:29:48.058Z,46.07
2023-08-12T17:32:16.376Z,46.04
2023-08-12T17:34:44.497Z,46.25
2023-08-12T17:37:12.596Z,46.17
2023-08-12T17:39:41.141Z,46.14
2023-08-12T17:42:09.114Z,46.03
2023-08-12T17:44:38.423Z,46.25
2023-08-12T17:47:07.147Z,46.11
2023-08-12T17:49:35.163Z,46.19
2023-08-12T17:52:03.302Z,46.24
2023-08-12T17:54:31.326Z,46.31
2023-08-12T17:56:59.392Z,46.28
2023-08-12T17:59:27.465Z,46.38
2023-08-12T18:01:56.836Z,46.27
2023-08-12T18:04:24.808Z,46.29
2023-08-12T18:06:53.108Z,46.36
2023-08-12T18:09:21.152Z,46.22
2023-08-12T18:11:49.115Z,46.27
2023-08-12T18:14:17.423Z,46.08
2023-08-12T18:16:45.528Z,46.12
2023-08-12T18:19:14.996Z,46.01
2023-08-12T18:21:43.039Z,46.16
2023-08-12T18:24:11.084Z,45.95
2023-08-12T18:26:39.274Z,46.17
2023-08-12T18:29:07.244Z,46.04
2023-08-12T18:31:39.614Z,45.92
2023-08-12T18:34:08.201Z,46.19
2023-08-12T18:36:37.478Z,46.12
2023-08-12T18:39:05.883Z,46.10
2023-08-12T18:41:33.944Z,46.13
2023-08-12T18:44:02.178Z,46.23
2023-08-12T18:46:30.178Z,46.32
2023-08-12T18:48:58.243Z,46.40
2023-08-12T18:51:26.176Z,46.43
2023-08-12T18:53:57.736Z,46.40
2023-08-12T18:56:27.089Z,46.41
2023-08-12T18:58:55.123Z,46.56
2023-08-12T19:01:23.411Z,46.45
2023-08-12T19:03:51.467Z,46.55
2023-08-12T19:06:19.557Z,46.50
2023-08-12T19:08:47.471Z,46.62
2023-08-12T19:11:21.744Z,46.33
2023-08-12T19:13:50.007Z,46.41
2023-08-12T19:16:18.201Z,46.08
2023-08-12T19:18:46.820Z,46.59
2023-08-12T19:21:14.854Z,46.44
2023-08-12T19:23:42.898Z,46.40
2023-08-12T19:26:10.944Z,46.42
2023-08-12T19:28:40.375Z,46.42
2023-08-12T19:31:08.283Z,46.38
2023-08-12T19:33:36.294Z,46.19
2023-08-12T19:36:04.559Z,46.31
2023-08-12T19:38:32.577Z,46.37
2023-08-12T19:41:00.764Z,46.23
2023-08-12T19:43:28.696Z,46.30
2023-08-12T19:45:58.104Z,46.28
2023-08-12T19:48:26.129Z,46.31
2023-08-12T19:50:55.124Z,46.30
2023-08-12T19:53:23.339Z,46.31
2023-08-12T19:55:51.329Z,46.33
2023-08-12T19:58:19.527Z,46.28
2023-08-12T20:00:47.665Z,46.30
2023-08-12T20:03:17.082Z,46.42
2023-08-12T20:05:45.196Z,46.23
2023-08-12T20:08:13.234Z,46.36
2023-08-12T20:10:41.176Z,46.34
2023-08-12T20:13:09.273Z,46.31
2023-08-12T20:15:37.240Z,46.38
2023-08-12T20:18:05.963Z,46.34
2023-08-12T20:20:35.370Z,46.33
2023-08-12T20:23:06.603Z,46.33
2023-08-12T20:25:37.786Z,46.26
2023-08-12T20:28:06.926Z,46.32
2023-08-12T20:30:35.174Z,46.43
2023-08-12T20:33:04.617Z,46.36
2023-08-12T20:35:32.796Z,46.45
2023-08-12T20:38:02.126Z,46.40
2023-08-12T20:40:30.109Z,46.42
2023-08-12T20:42:58.051Z,46.50
2023-08-12T20:45:26.171Z,46.35
2023-08-12T20:47:54.158Z,46.59
2023-08-12T20:50:22.267Z,46.66
2023-08-12T20:52:50.194Z,46.80
2023-08-12T20:55:19.639Z,46.87
2023-08-12T20:57:49.345Z,46.91
2023-08-12T21:00:17.933Z,46.92
2023-08-12T21:02:46.649Z,47.04
2023-08-12T21:05:15.311Z,46.81
2023-08-12T21:07:43.461Z,47.09
2023-08-12T21:10:12.127Z,47.09
2023-08-12T21:12:41.783Z,47.04
2023-08-12T21:15:10.564Z,47.22
2023-08-12T21:17:38.621Z,47.35
2023-08-12T21:20:07.723Z,47.29
2023-08-12T21:22:35.731Z,47.38
2023-08-12T21:25:05.396Z,47.50
2023-08-12T21:27:33.521Z,47.37
2023-08-12T21:30:03.038Z,47.43
2023-08-12T21:32:33.209Z,47.42
2023-08-12T21:35:01.316Z,47.37
2023-08-12T21:37:30.330Z,47.51
2023-08-12T21:39:58.469Z,47.49
2023-08-12T21:42:26.484Z,47.54
2023-08-12T21:44:54.576Z,47.58
2023-08-12T21:47:23.980Z,47.62
2023-08-12T21:49:52.067Z,47.67
2023-08-12T21:52:20.149Z,47.54
2023-08-12T21:54:48.644Z,47.44
2023-08-12T21:57:16.801Z,47.52
2023-08-12T21:59:44.818Z,47.51
2023-08-12T22:02:12.939Z,47.45
2023-08-12T22:04:42.509Z,47.60
2023-08-12T22:07:10.509Z,47.60
2023-08-12T22:09:38.458Z,47.60
2023-08-12T22:12:05.777Z,47.36
2023-08-12T22:14:34.057Z,47.67
2023-08-12T22:17:03.670Z,47.56
2023-08-12T22:19:31.873Z,47.67
2023-08-12T22:22:13.017Z,47.61
2023-08-12T22:24:47.280Z,47.73
2023-08-12T22:27:15.351Z,47.69
2023-08-12T22:29:43.276Z,47.72
2023-08-12T22:32:12.501Z,47.77
2023-08-12T22:34:40.706Z,47.49
2023-08-12T22:37:10.941Z,47.75
2023-08-12T22:39:39.042Z,47.84
2023-08-12T22:42:07.615Z,48.07
2023-08-12T22:44:35.800Z,47.87
2023-08-12T22:47:03.878Z,47.77
2023-08-12T22:49:31.962Z,48.08
2023-08-12T22:51:59.922Z,48.20
2023-08-12T22:54:29.447Z,48.14
2023-08-12T22:56:57.428Z,48.28
2023-08-12T22:59:25.582Z,48.35
2023-08-12T23:01:53.688Z,48.20
2023-08-12T23:04:21.873Z,48.37
2023-08-12T23:06:49.819Z,48.25
2023-08-12T23:09:18.080Z,48.21
2023-08-12T23:11:47.484Z,48.54
2023-08-12T23:14:15.544Z,48.32
2023-08-12T23:16:43.640Z,48.31
2023-08-12T23:19:12.517Z,48.46
2023-08-12T23:21:40.739Z,48.51
2023-08-12T23:24:09.213Z,48.45
2023-08-12T23:26:38.120Z,48.36
2023-08-12T23:29:08.105Z,48.44
2023-08-12T23:31:36.164Z,48.55
2023-08-12T23:34:04.152Z,48.58
2023-08-12T23:36:34.272Z,48.68
2023-08-12T23:39:02.413Z,48.74
2023-08-12T23:41:30.423Z,48.73
2023-08-12T23:43:58.471Z,48.72
2023-08-12T23:46:27.891Z,48.78
2023-08-12T23:48:55.907Z,48.72
2023-08-12T23:51:23.900Z,48.81
2023-08-12T23:53:51.915Z,48.81
2023-08-12T23:56:19.933Z,48.93
2023-08-12T23:58:48.211Z,48.88
